Data for 02/05/2007

Time Sea-Level Adjusted Pressure Absolute Pressure Temperature Relative Humidity Dew Point   
(mb) (inHg) (mb) (inHg) (C) (F) (%) (C) (F)
00:05 1025 30.27 854 25.22 5.3 41.6 71 0.5 32.9
00:10 1025 30.27 854 25.22 5.6 42.1 69 0.5 32.8
00:15 1025 30.27 854 25.22 5.5 42 70 0.5 32.9
00:20 1025 30.27 854 25.22 5.5 41.9 70 0.5 32.9
00:25 1025 30.27 854 25.22 5.4 41.6 73 0.9 33.6
00:30 1025 30.27 854 25.22 4.5 40.1 78 1 33.7
00:35 1025 30.27 854 25.22 3.6 38.5 82 0.8 33.4
00:40 1025 30.27 854 25.22 3.3 38 81 0.4 32.8
00:45 1025 30.27 854 25.22 3.2 37.8 82 0.5 32.8
00:50 1025 30.27 854 25.22 3.4 38 82 0.5 33
00:55 1025 30.27 854 25.22 3.5 38.3 80 0.3 32.6
01:00 1025 30.27 854 25.22 3.9 39.1 77 0.2 32.4
01:05 1025 30.27 854 25.22 4 39.3 78 0.6 33
01:10 1025 30.27 854 25.22 3.8 38.8 79 0.5 32.8
01:15 1025 30.27 854 25.22 3.9 39.1 78 0.4 32.6
01:20 1025 30.27 854 25.22 4.3 39.8 75 0.2 32.4
01:25 1025 30.27 854 25.22 4.7 40.4 73 0.1 32.3
01:30 1025 30.27 854 25.22 5 41 70 -0.1 31.8
01:35 1025 30.27 854 25.22 5.3 41.6 68 0 32
01:40 1025 30.27 854 25.22 5.4 41.8 67 -0.1 31.8
01:45 1025 30.27 854 25.22 5.3 41.6 67 -0.3 31.5
01:50 1025 30.27 854 25.22 5.3 41.5 68 -0.2 31.7
01:55 1025 30.27 854 25.22 5.1 41.2 68 -0.2 31.6
02:00 1025 30.27 854 25.22 4.8 40.6 69 -0.3 31.4
02:05 1025 30.27 854 25.22 5.2 41.3 67 -0.4 31.3
02:10 1025 30.27 854 25.22 5 40.9 69 -0.3 31.5
02:15 1025 30.27 854 25.22 5 41 66 -0.9 30.4
02:20 1024 30.24 854 25.22 5.5 41.9 64 -0.7 30.8
02:25 1025 30.27 854 25.22 5.3 41.6 70 0.3 32.5
02:30 1024 30.24 854 25.22 4.6 40.3 72 -0 31.9
02:35 1024 30.24 854 25.22 4 39.2 79 0.7 33.2
02:40 1024 30.24 854 25.22 3.6 38.5 79 0.3 32.5
02:45 1025 30.27 854 25.22 3.8 38.8 76 0 32
02:50 1025 30.27 854 25.22 4.1 39.5 75 0.2 32.3
02:55 1025 30.27 854 25.22 4.1 39.4 75 0.1 32.2
03:00 1025 30.27 854 25.22 4.2 39.5 74 -0 32
03:05 1024 30.24 854 25.22 4.3 39.7 73 -0.1 31.8
03:10 1025 30.27 854 25.22 4.5 40 72 -0.1 31.7
03:15 1024 30.24 854 25.22 4.5 40.2 71 -0.2 31.7
03:20 1024 30.24 854 25.22 4.5 40.2 72 -0.2 31.7
03:25 1025 30.27 854 25.22 4.5 40.1 72 -0.2 31.7
03:30 1025 30.27 854 25.22 4.6 40.2 72 0 32
03:35 1025 30.27 854 25.22 4.3 39.7 74 -0 31.9
03:40 1025 30.27 854 25.22 4.2 39.6 72 -0.4 31.2
03:45 1025 30.27 854 25.22 4.7 40.4 68 -0.6 30.9
03:50 1025 30.27 854 25.22 5.4 41.6 65 -0.7 30.8
03:55 1025 30.27 854 25.22 5.6 42 67 0 32
04:00 1025 30.27 854 25.22 5.1 41.2 66 -0.7 30.8
04:05 1025 30.27 854 25.22 5.5 41.9 66 -0.3 31.4
04:10 1025 30.27 854 25.22 5.3 41.6 68 -0 31.9
04:15 1025 30.27 854 25.22 4.6 40.3 72 0 32
04:20 1025 30.27 854 25.22 4.5 40.1 71 -0.3 31.5
04:25 1025 30.27 854 25.22 4.8 40.7 69 -0.4 31.4
04:30 1025 30.27 854 25.22 5.1 41.2 69 -0.1 31.8
04:35 1025 30.27 854 25.22 5 41.1 70 0 32
04:40 1025 30.27 854 25.22 4.8 40.6 71 -0.1 31.8
04:45 1025 30.27 854 25.22 4.7 40.5 70 -0.2 31.6
04:50 1025 30.27 854 25.22 4.9 40.8 70 -0.2 31.7
04:55 1025 30.27 854 25.22 5.2 41.3 69 -0 32
05:00 1024 30.24 854 25.22 5 41 70 0 32.1
05:05 1025 30.27 854 25.22 4.8 40.6 72 0.1 32.2
05:10 1025 30.27 854 25.22 4.5 40.1 72 -0.1 31.9
05:15 1025 30.27 854 25.22 4.6 40.3 70 -0.3 31.4
05:20 1025 30.27 854 25.22 5 41 69 -0.2 31.6
05:25 1025 30.27 854 25.22 5.2 41.4 67 -0.3 31.4
05:30 1024 30.24 854 25.22 5.5 41.9 67 -0.2 31.7
05:35 1024 30.24 854 25.22 5.7 42.3 65 -0.3 31.4
05:40 1024 30.24 853 25.19 6.2 43.1 63 -0.3 31.5
05:45 1024 30.24 853 25.19 6 42.7 65 -0.2 31.7
05:50 1024 30.24 853 25.19 5.8 42.5 60 -1.3 29.6
05:55 1024 30.24 853 25.19 6.7 44.1 57 -1.1 30.1
06:00 1024 30.24 853 25.19 7 44.7 57 -1 30.2
06:05 1024 30.24 853 25.19 7.3 45.2 55 -1 30.2
06:10 1024 30.24 853 25.19 7.5 45.5 55 -0.8 30.5
06:15 1024 30.24 853 25.19 7.4 45.3 57 -0.6 30.8
06:20 1024 30.24 853 25.19 7.4 45.2 57 -0.5 31.1
06:25 1024 30.24 853 25.19 7.3 45.2 57 -0.6 31
06:30 1024 30.24 853 25.19 7.3 45.1 59 -0.1 31.8
06:35 1024 30.24 853 25.19 7.1 44.9 58 -0.4 31.2
06:40 1024 30.24 853 25.19 7.4 45.3 57 -0.6 31
06:45 1024 30.24 853 25.19 7.5 45.5 56 -0.7 30.8
06:50 1024 30.24 853 25.19 7.6 45.7 56 -0.7 30.8
06:55 1024 30.24 853 25.19 7.8 46 56 -0.5 31.1
07:00 1024 30.24 853 25.19 7.8 46 56 -0.5 31.2
07:05 1024 30.24 853 25.19 7.8 46 56 -0.4 31.3
07:10 1024 30.24 853 25.19 7.6 45.6 57 -0.4 31.3
07:15 1024 30.24 853 25.19 7.6 45.7 57 -0.3 31.5
07:20 1024 30.24 853 25.19 7.7 45.8 57 -0.4 31.3
07:25 1024 30.24 853 25.19 7.8 46.1 56 -0.4 31.4
07:30 1024 30.24 853 25.19 7.8 46 57 -0.3 31.5
07:35 1024 30.24 853 25.19 7.7 45.8 58 -0.1 31.7
07:40 1024 30.24 853 25.19 7.7 45.8 58 -0.1 31.8
07:45 1024 30.24 853 25.19 7.7 45.8 57 -0.2 31.6
07:50 1024 30.24 853 25.19 8.3 47 55 -0 31.9
07:55 1024 30.24 853 25.19 8.5 47.4 55 0.1 32.2
08:00 1024 30.24 853 25.19 8.7 47.6 55 0.1 32.2
08:05 1024 30.24 853 25.19 8.8 47.9 54 0.1 32.1
08:10 1024 30.24 853 25.19 9 48.2 53 0 32.1
08:15 1024 30.24 853 25.19 9.1 48.3 53 0.1 32.2
08:20 1024 30.24 853 25.19 8.8 47.8 54 -0 31.9
08:25 1024 30.24 853 25.19 8.6 47.6 54 -0 31.9
08:30 1024 30.24 853 25.19 8.7 47.6 54 -0.2 31.7
08:35 1024 30.24 853 25.19 8.8 47.9 53 -0.3 31.5
08:40 1024 30.24 853 25.19 9.1 48.3 52 -0.4 31.4
08:45 1024 30.24 853 25.19 9.3 48.7 51 -0.2 31.7
08:50 1024 30.24 853 25.19 9.3 48.8 52 -0.1 31.8
08:55 1024 30.24 853 25.19 9.2 48.6 53 0.3 32.5
09:00 1024 30.24 853 25.19 9.1 48.3 53 0.1 32.2
09:05 1024 30.24 853 25.19 8.9 48 54 0.2 32.3
09:10 1024 30.24 853 25.19 8.7 47.6 55 0.1 32.1
09:15 1024 30.24 853 25.19 8.7 47.6 55 0.1 32.2
09:20 1024 30.24 853 25.19 8.6 47.5 56 0.4 32.8
09:25 1024 30.24 854 25.22 8.5 47.3 57 0.4 32.8
09:30 1024 30.24 854 25.22 8.5 47.2 55 -0 31.9
09:35 1024 30.24 854 25.22 8.7 47.6 54 0 32
09:40 1024 30.24 854 25.22 8.8 47.8 54 0 32
09:45 1024 30.24 854 25.22 9.1 48.3 52 -0.3 31.4
09:50 1024 30.24 854 25.22 9.3 48.8 51 -0.2 31.7
09:55 1025 30.27 854 25.22 9.5 49 51 -0.2 31.6
10:00 1024 30.24 854 25.22 9.6 49.3 50 -0.4 31.3
10:05 1024 30.24 854 25.22 9.8 49.6 48 -0.7 30.8
10:10 1024 30.24 854 25.22 9.9 49.9 48 -0.6 30.9
10:15 1024 30.24 853 25.19 10 50 47 -0.7 30.7
10:20 1024 30.24 853 25.19 10.1 50.2 47 -0.7 30.8
10:25 1024 30.24 853 25.19 10.3 50.5 46 -0.7 30.7
10:30 1024 30.24 853 25.19 10.3 50.6 47 -0.6 30.9
10:35 1024 30.24 853 25.19 10.4 50.7 45 -0.8 30.5
10:40 1024 30.24 853 25.19 10.5 50.9 44 -1.2 29.8
10:45 1024 30.24 853 25.19 10.8 51.4 46 -0.4 31.3
10:50 1024 30.24 853 25.19 10.3 50.6 50 0.3 32.5
10:55 1024 30.24 853 25.19 9.6 49.2 51 0.1 32.1
11:00 1024 30.24 853 25.19 9.4 48.8 51 -0.3 31.5
11:05 1024 30.24 853 25.19 9.5 49.1 50 -0.4 31.3
11:10 1024 30.24 853 25.19 9.6 49.4 50 -0.2 31.6
11:15 1024 30.24 853 25.19 9.8 49.7 50 -0.2 31.7
11:20 1024 30.24 853 25.19 10 50 49 -0.2 31.7
11:25 1024 30.24 853 25.19 10.1 50.2 49 -0.1 31.8
11:30 1024 30.24 853 25.19 10.1 50.2 49 -0.2 31.7
11:35 1024 30.24 853 25.19 10.3 50.5 47 -0.6 31
11:40 1024 30.24 853 25.19 10.6 51 46 -0.5 31.1
11:45 1024 30.24 853 25.19 10.8 51.5 46 -0.4 31.2
11:50 1024 30.24 853 25.19 11.1 51.9 45 -0.5 31.2
11:55 1024 30.24 853 25.19 11.2 52.2 45 -0.3 31.5
12:00 1023 30.21 853 25.19 11.3 52.3 45 -0.3 31.5
12:05 1023 30.21 853 25.19 11.2 52.2 45 -0.3 31.5
12:10 1023 30.21 852 25.16 11.3 52.4 44 -0.4 31.2
12:15 1023 30.21 852 25.16 11.5 52.7 43 -0.5 31
12:20 1023 30.21 852 25.16 11.6 53 42 -0.7 30.8
12:25 1023 30.21 852 25.16 11.8 53.2 43 -0.4 31.2
12:30 1023 30.21 852 25.16 11.6 52.9 43 -0.6 30.9
12:35 1023 30.21 852 25.16 11.6 52.9 43 -0.6 30.9
12:40 1023 30.21 852 25.16 11.7 53.1 43 -0.4 31.3
12:45 1023 30.21 852 25.16 11.7 53.1 43 -0.4 31.2
12:50 1023 30.21 852 25.16 11.6 52.9 43 -0.4 31.2
12:55 1023 30.21 852 25.16 11.6 52.9 43 -0.3 31.4
13:00 1023 30.21 852 25.16 11.7 53 43 -0.4 31.3
13:05 1023 30.21 852 25.16 11.7 53.1 43 -0.5 31.1
13:10 1023 30.21 852 25.16 12 53.5 40 -1 30.2
13:15 1022 30.18 852 25.16 12 53.6 41 -0.7 30.7
13:20 1022 30.18 852 25.16 12.1 53.8 39 -1.3 29.7
13:25 1022 30.18 851 25.13 11.8 53.2 40 -1.2 29.8
13:30 1022 30.18 851 25.13 11.9 53.5 40 -1.1 30
13:35 1022 30.18 851 25.13 12.4 54.3 38 -1.5 29.3
13:40 1022 30.18 851 25.13 13.1 55.5 38 -0.8 30.6
13:45 1022 30.18 851 25.13 13.4 56.1 37 -1 30.2
13:50 1022 30.18 851 25.13 13.7 56.6 36 -1.2 29.8
13:55 1022 30.18 851 25.13 13.6 56.5 36 -1 30.1
14:00 1022 30.18 851 25.13 12.9 55.2 40 -0.5 31.2
14:05 1022 30.18 851 25.13 13.1 55.5 39 -0.6 30.8
14:10 1022 30.18 851 25.13 14.2 57.6 35 -1.1 30
14:15 1022 30.18 851 25.13 15.2 59.3 33 -0.7 30.7
14:20 1021 30.15 851 25.13 15.2 59.4 33 -1 30.2
14:25 1021 30.15 850 25.1 14.5 58.1 35 -0.8 30.5
14:30 1021 30.15 850 25.1 14.3 57.7 35 -0.9 30.4
14:35 1021 30.15 850 25.1 14.3 57.8 35 -1 30.3
14:40 1021 30.15 850 25.1 14.6 58.3 34 -1.1 30
14:45 1021 30.15 850 25.1 15 58.9 33 -1.2 29.8
14:50 1021 30.15 850 25.1 14.5 58.1 35 -0.6 30.8
14:55 1021 30.15 850 25.1 14.5 58.1 34 -1.1 29.9
15:00 1021 30.15 850 25.1 13.9 57.1 36 -0.9 30.3
15:05 1021 30.15 850 25.1 13.4 56 36 -1.2 29.8
15:10 1021 30.15 850 25.1 13.3 55.9 36 -1.6 29.2
15:15 1021 30.15 850 25.1 13.3 55.9 36 -1.3 29.7
15:20 1021 30.15 850 25.1 13.3 55.9 36 -1.3 29.7
15:25 1021 30.15 850 25.1 13.2 55.7 36 -1.4 29.4
15:30 1021 30.15 850 25.1 13.2 55.8 37 -1.1 30
15:35 1021 30.15 850 25.1 13.4 56.1 35 -1.7 29
15:40 1021 30.15 850 25.1 13.7 56.6 35 -1.5 29.3
15:45 1021 30.15 850 25.1 13.6 56.5 35 -1.4 29.5
15:50 1021 30.15 850 25.1 13.3 56 35 -1.7 28.9
15:55 1021 30.15 850 25.1 13.6 56.4 35 -1.7 29
16:00 1021 30.15 850 25.1 13.5 56.3 36 -1.4 29.5
16:05 1021 30.15 850 25.1 12.9 55.1 37 -1.3 29.6
16:10 1021 30.15 850 25.1 12.6 54.8 37 -1.5 29.3
16:15 1021 30.15 850 25.1 12.7 54.8 37 -1.6 29.2
16:20 1021 30.15 850 25.1 12.2 54 37 -2.1 28.2
16:25 1021 30.15 850 25.1 12.3 54.1 36 -2.3 27.9
16:30 1021 30.15 850 25.1 12.3 54.1 36 -2.5 27.5
16:35 1021 30.15 850 25.1 12.2 54 36 -2.3 27.8
16:40 1021 30.15 850 25.1 12.1 53.7 36 -2.3 27.8
16:45 1021 30.15 850 25.1 11.9 53.5 37 -2.2 28.1
16:50 1021 30.15 850 25.1 11.6 52.9 38 -2.1 28.3
16:55 1021 30.15 850 25.1 11.4 52.6 39 -2 28.3
17:00 1020 30.12 850 25.1 11.5 52.6 38 -2.3 27.9
17:05 1021 30.15 850 25.1 11.6 53 38 -2 28.3
17:10 1021 30.15 850 25.1 11.6 52.8 38 -2.1 28.2
17:15 1020 30.12 850 25.1 11.5 52.8 39 -2 28.5
17:20 1020 30.12 850 25.1 11.4 52.4 39 -2.1 28.2
17:25 1020 30.12 850 25.1 11.5 52.7 37 -2.5 27.5
17:30 1020 30.12 849 25.07 11.9 53.4 36 -2.8 26.9
17:35 1020 30.12 849 25.07 12 53.6 35 -2.8 27
17:40 1020 30.12 849 25.07 11.9 53.4 37 -2.3 27.8
17:45 1020 30.12 850 25.1 11.8 53.2 36 -2.6 27.3
17:50 1021 30.15 850 25.1 12.1 53.8 36 -2.3 27.8
17:55 1021 30.15 850 25.1 11.7 53 38 -2 28.4
18:00 1020 30.12 850 25.1 11.4 52.6 38 -2.4 27.6
18:05 1020 30.12 850 25.1 11.5 52.6 38 -2.3 27.9
18:10 1020 30.12 850 25.1 11.3 52.3 38 -2.3 27.8
18:15 1020 30.12 850 25.1 11.4 52.5 37 -2.7 27.1
18:20 1020 30.12 850 25.1 11.6 52.9 35 -3.2 26.3
18:25 1020 30.12 850 25.1 11.7 53.1 36 -2.9 26.9
18:30 1020 30.12 850 25.1 11.6 52.8 36 -2.8 26.9
18:35 1020 30.12 849 25.07 11.5 52.7 36 -3 26.6
18:40 1020 30.12 849 25.07 11.5 52.8 35 -3.2 26.3
18:45 1020 30.12 849 25.07 11.5 52.6 35 -3.3 26.1
18:50 1020 30.12 849 25.07 11.1 52 37 -2.9 26.7
18:55 1020 30.12 849 25.07 10.7 51.2 38 -2.9 26.9
19:00 1020 30.12 849 25.07 10.7 51.3 37 -3.4 25.9
19:05 1020 30.12 849 25.07 10.7 51.3 37 -3.3 26.1
19:10 1020 30.12 849 25.07 10.7 51.3 37 -3.2 26.2
19:15 1020 30.12 849 25.07 10.9 51.5 34 -4.4 24.1
19:20 1020 30.12 849 25.07 11.4 52.5 34 -4.1 24.7
19:25 1020 30.12 849 25.07 11.1 51.9 35 -3.9 25.1
19:30 1020 30.12 849 25.07 10.8 51.4 35 -3.9 25
19:35 1020 30.12 849 25.07 10.8 51.5 34 -4.2 24.4
19:40 1020 30.12 849 25.07 10.7 51.2 36 -3.9 25
19:45 1020 30.12 849 25.07 10.6 51.1 36 -3.8 25.2
19:50 1020 30.12 849 25.07 10.5 51 35 -4.2 24.4
19:55 1020 30.12 849 25.07 10.9 51.6 34 -4.1 24.5
20:00 1020 30.12 849 25.07 11 51.7 35 -3.7 25.4
20:05 1020 30.12 849 25.07 10.7 51.2 36 -3.9 25.1
20:10 1020 30.12 849 25.07 10.7 51.3 37 -3.4 25.9
20:15 1020 30.12 849 25.07 10.3 50.5 39 -3 26.6
20:20 1020 30.12 849 25.07 10 50 38 -3.6 25.6
20:25 1020 30.12 849 25.07 10.2 50.3 38 -3.5 25.8
20:30 1020 30.12 849 25.07 10 50 40 -3 26.6
20:35 1020 30.12 849 25.07 9.6 49.4 42 -2.7 27.2
20:40 1020 30.12 849 25.07 9.1 48.4 45 -2.3 27.9
20:45 1020 30.12 849 25.07 8.9 48.1 45 -2.2 28.1
20:50 1020 30.12 849 25.07 8.7 47.7 46 -2.3 27.8
20:55 1020 30.12 849 25.07 8.4 47.2 47 -2.1 28.3
21:00 1020 30.12 849 25.07 8.3 46.9 47 -2.3 27.8
21:05 1020 30.12 849 25.07 8.5 47.3 47 -2.2 28.1
21:10 1020 30.12 849 25.07 8.3 47 49 -1.9 28.6
21:15 1020 30.12 849 25.07 8 46.5 49 -1.9 28.6
21:20 1020 30.12 849 25.07 8 46.4 49 -2 28.3
21:25 1020 30.12 849 25.07 8.2 46.8 48 -2.2 28
21:30 1020 30.12 849 25.07 8.8 47.9 45 -2.6 27.3
21:35 1020 30.12 849 25.07 9 48.2 45 -2.3 27.8
21:40 1020 30.12 849 25.07 9.2 48.5 44 -2.4 27.6
21:45 1020 30.12 849 25.07 9.5 49.1 42 -2.7 27.2
21:50 1020 30.12 849 25.07 9.8 49.6 42 -2.4 27.6
21:55 1020 30.12 849 25.07 9.5 49.1 43 -2.3 27.8
22:00 1020 30.12 849 25.07 9.1 48.4 45 -2.1 28.3
22:05 1020 30.12 849 25.07 8.5 47.4 48 -1.8 28.7
22:10 1020 30.12 849 25.07 8.3 46.9 49 -1.8 28.8
22:15 1020 30.12 849 25.07 8.1 46.6 49 -2 28.5
22:20 1020 30.12 849 25.07 8.3 46.9 49 -1.9 28.6
22:25 1020 30.12 849 25.07 8.2 46.7 49 -1.7 28.9
22:30 1020 30.12 849 25.07 8.3 46.9 48 -2.1 28.1
22:35 1020 30.12 849 25.07 8.4 47.2 48 -1.9 28.6
22:40 1020 30.12 849 25.07 8.3 47 48 -2 28.5
22:45 1020 30.12 849 25.07 8.3 46.9 48 -1.9 28.5
22:50 1020 30.12 849 25.07 8.1 46.6 49 -1.9 28.5
22:55 1020 30.12 849 25.07 7.9 46.3 49 -2 28.3
23:00 1020 30.12 849 25.07 7.8 46.1 50 -2 28.5
23:05 1020 30.12 849 25.07 7.9 46.2 48 -2.3 27.8
23:10 1020 30.12 849 25.07 8.2 46.7 47 -2.5 27.6
23:15 1020 30.12 849 25.07 8.4 47 46 -2.5 27.6
23:20 1020 30.12 849 25.07 8.3 47 46 -2.5 27.6
23:25 1020 30.12 849 25.07 8.1 46.5 49 -2 28.4
23:30 1020 30.12 849 25.07 7.7 45.8 50 -2 28.3
23:35 1020 30.12 849 25.07 7.5 45.5 51 -2 28.4
23:40 1020 30.12 849 25.07 7.4 45.3 51 -2 28.4
23:45 1020 30.12 849 25.07 7.3 45.1 53 -1.8 28.8
23:50 1020 30.12 849 25.07 7 44.6 53 -1.9 28.6
23:55 1020 30.12 849 25.07 6.7 44.1 54 -1.8 28.8
24:00 1020 30.12 849 25.07 6.6 44 54 -1.9 28.5